Time;durP1;ratioP1;P1;durP2;ratioP2;P2;SDS_P1;SDS_P2;PMS_P1;PMS_P2;Temp;Humidity;BMP_temperature;BMP_pressure;BME280_temperature;BME280_humidity;BME280_pressure;Samples;Min_cycle;Max_cycle;Signal;HPM_P1;HPM_P2
2021/05/25 00:01:48;;;;;;;48.80;31.95;;;;;;;11.13;74.62;96442.54;127606;1101;22025;-81
2021/05/25 00:04:18;;;;;;;28.87;18.70;;;;;;;11.17;74.92;96439.02;127613;1101;22794;-78
2021/05/25 00:06:48;;;;;;;13.10;7.23;;;;;;;11.22;74.71;96430.20;127561;1101;22844;-81
2021/05/25 00:09:18;;;;;;;6.68;4.68;;;;;;;11.20;74.66;96430.48;127524;1101;22873;-79
2021/05/25 00:11:47;;;;;;;10.30;5.43;;;;;;;11.17;74.78;96436.37;127559;1101;22749;-79
2021/05/25 00:14:19;;;;;;;10.07;6.80;;;;;;;11.16;74.47;96424.18;127583;1101;22923;-80
2021/05/25 00:16:50;;;;;;;6.33;3.73;;;;;;;11.19;74.73;96414.85;127566;1101;23694;-80
2021/05/25 00:19:21;;;;;;;5.10;3.35;;;;;;;11.14;74.80;96418.38;127550;1101;24412;-80
2021/05/25 00:21:51;;;;;;;5.60;3.10;;;;;;;11.18;75.28;96423.89;127538;1101;22797;-81
2021/05/25 00:24:20;;;;;;;7.27;2.87;;;;;;;11.19;75.20;96414.85;127504;1101;23778;-79
2021/05/25 00:26:50;;;;;;;5.10;3.13;;;;;;;11.24;75.43;96418.21;127546;1101;23679;-79
2021/05/25 00:29:20;;;;;;;6.53;3.10;;;;;;;11.25;75.20;96419.79;127561;1101;23704;-80
2021/05/25 00:31:50;;;;;;;6.03;2.70;;;;;;;11.28;75.03;96429.06;127555;1101;22951;-80
2021/05/25 00:34:20;;;;;;;4.13;2.33;;;;;;;11.29;74.81;96420.81;127567;1101;22847;-80
2021/05/25 00:36:49;;;;;;;4.70;2.93;;;;;;;11.32;74.61;96414.14;127564;1101;22773;-80
2021/05/25 00:39:19;;;;;;;9.93;5.30;;;;;;;11.34;74.98;96422.59;127532;1096;27479;-80
2021/05/25 00:41:49;;;;;;;5.33;3.00;;;;;;;11.32;75.16;96424.75;127600;1101;22843;-80
2021/05/25 00:44:19;;;;;;;2.25;1.83;;;;;;;11.29;75.22;96428.78;127567;1101;22774;-79
2021/05/25 00:46:49;;;;;;;7.33;3.50;;;;;;;11.26;75.07;96420.58;127565;1096;22761;-79
2021/05/25 00:49:19;;;;;;;4.18;2.78;;;;;;;11.31;75.15;96409.91;127587;1101;22929;-80
2021/05/25 00:51:49;;;;;;;6.83;2.47;;;;;;;11.24;75.24;96417.42;127545;1101;22759;-80
2021/05/25 00:54:19;;;;;;;3.05;2.13;;;;;;;11.23;75.37;96413.20;127569;1096;26229;-79
2021/05/25 00:56:49;;;;;;;7.68;2.90;;;;;;;11.20;75.80;96425.17;127557;1101;24253;-80
2021/05/25 00:59:20;;;;;;;5.50;2.45;;;;;;;11.09;76.14;96421.08;127581;1101;23053;-79
2021/05/25 01:01:50;;;;;;;3.15;2.13;;;;;;;10.99;76.42;96423.88;127567;1101;24431;-79
2021/05/25 01:04:20;;;;;;;4.35;2.30;;;;;;;10.93;76.22;96403.78;127555;1101;23110;-79
2021/05/25 01:06:50;;;;;;;4.73;2.20;;;;;;;10.98;76.68;96401.09;127572;1101;22797;-80
2021/05/25 01:09:19;;;;;;;3.53;2.43;;;;;;;10.89;76.86;96403.57;127564;1101;23685;-79
2021/05/25 01:11:50;;;;;;;3.87;2.50;;;;;;;10.85;77.30;96394.61;127570;1101;24405;-79
2021/05/25 01:14:20;;;;;;;5.10;2.40;;;;;;;10.81;76.96;96382.98;127581;1096;22779;-79
2021/05/25 01:16:50;;;;;;;5.70;2.30;;;;;;;10.83;77.01;96386.13;127581;1101;22896;-79
2021/05/25 01:19:20;;;;;;;4.73;2.08;;;;;;;10.92;76.54;96378.34;127576;1101;23317;-79
2021/05/25 01:21:50;;;;;;;6.00;2.50;;;;;;;10.98;76.71;96369.25;127554;1101;25559;-79
2021/05/25 01:24:19;;;;;;;5.37;2.40;;;;;;;10.95;76.26;96367.16;127542;1101;23578;-79
2021/05/25 01:26:49;;;;;;;12.17;6.43;;;;;;;10.94;76.79;96371.67;127557;1101;22764;-80
2021/05/25 01:29:19;;;;;;;3.77;2.70;;;;;;;10.90;76.43;96361.92;127568;1101;22745;-79
2021/05/25 01:31:49;;;;;;;4.83;2.50;;;;;;;10.95;76.86;96357.33;127594;1096;26542;-79
2021/05/25 01:34:19;;;;;;;5.70;2.98;;;;;;;10.92;76.78;96365.08;127536;1101;22759;-79
2021/05/25 01:36:49;;;;;;;4.33;2.73;;;;;;;10.89;76.68;96366.44;127572;1101;24351;-78
2021/05/25 01:39:19;;;;;;;9.70;3.13;;;;;;;10.90;76.64;96375.97;127557;1100;23678;-79
2021/05/25 01:41:53;;;;;;;2.90;1.83;;;;;;;10.93;76.68;96370.09;127552;1101;24411;-79
2021/05/25 01:44:23;;;;;;;3.58;1.50;;;;;;;11.00;76.76;96364.45;127557;1101;22766;-79
2021/05/25 01:46:53;;;;;;;2.53;1.10;;;;;;;11.00;76.89;96364.45;127557;1096;22770;-79
2021/05/25 01:49:23;;;;;;;3.60;2.20;;;;;;;10.97;78.37;96375.61;127532;1101;22770;-79
2021/05/25 01:51:53;;;;;;;4.85;2.25;;;;;;;10.76;77.67;96371.66;127606;1101;22791;-81
2021/05/25 01:54:23;;;;;;;4.98;1.95;;;;;;;10.72;78.04;96373.31;127595;1101;22780;-78
2021/05/25 01:56:53;;;;;;;5.90;3.27;;;;;;;10.71;78.01;96367.22;127588;1101;22759;-79
2021/05/25 01:59:23;;;;;;;3.63;2.50;;;;;;;10.75;78.04;96367.43;127567;1101;23396;-79
2021/05/25 02:01:53;;;;;;;5.88;2.88;;;;;;;10.83;77.69;96364.13;127554;1101;23842;-81
2021/05/25 02:04:22;;;;;;;6.03;2.20;;;;;;;10.92;77.93;96384.43;127558;1101;22933;-79
2021/05/25 02:06:53;;;;;;;6.03;3.13;;;;;;;10.94;78.94;96397.40;127549;1101;22759;-79
2021/05/25 02:09:23;;;;;;;5.68;2.98;;;;;;;10.85;78.97;96384.01;127556;1101;23720;-79
2021/05/25 02:11:53;;;;;;;6.25;3.23;;;;;;;10.83;78.40;96356.17;127563;1101;22843;-80
2021/05/25 02:14:23;;;;;;;3.57;1.97;;;;;;;10.88;78.85;96356.91;127554;1101;36725;-80
2021/05/25 02:16:53;;;;;;;3.38;2.08;;;;;;;10.89;78.69;96352.39;127546;1101;22773;-79
2021/05/25 02:19:23;;;;;;;1.93;1.40;;;;;;;10.84;78.94;96393.04;127577;1101;25601;-80
2021/05/25 02:21:52;;;;;;;4.73;1.98;;;;;;;10.82;79.54;96420.89;127534;1101;22764;-79
2021/05/25 02:24:22;;;;;;;4.20;1.73;;;;;;;10.84;79.17;96393.04;127564;1096;25841;-79
2021/05/25 02:26:52;;;;;;;3.57;1.53;;;;;;;10.95;78.50;96367.16;127542;1101;22666;-79
2021/05/25 02:29:22;;;;;;;5.03;2.20;;;;;;;11.08;78.23;96392.97;127533;1101;23714;-79
2021/05/25 02:31:51;;;;;;;11.07;4.20;;;;;;;11.16;78.97;96394.20;127582;1096;27491;-80
2021/05/25 02:34:21;;;;;;;9.65;4.30;;;;;;;11.09;80.37;96346.79;127575;1101;22764;-81
2021/05/25 02:36:51;;;;;;;6.20;3.28;;;;;;;11.03;79.83;96317.98;127523;1101;22757;-78
2021/05/25 02:39:21;;;;;;;7.67;3.40;;;;;;;11.06;79.25;96314.75;127529;1096;27407;-78
2021/05/25 02:41:50;;;;;;;7.03;3.50;;;;;;;11.09;78.97;96298.25;127532;1101;22764;-80
2021/05/25 02:44:20;;;;;;;8.45;3.90;;;;;;;11.07;78.42;96303.84;127531;1101;23698;-80
2021/05/25 02:46:50;;;;;;;6.30;3.33;;;;;;;11.07;78.51;96316.33;127547;1101;22794;-80
2021/05/25 02:49:20;;;;;;;6.97;3.80;;;;;;;11.05;78.95;96337.84;127539;1101;22819;-80
2021/05/25 02:51:50;;;;;;;6.07;3.77;;;;;;;11.00;79.44;96372.41;127572;1101;22787;-80
2021/05/25 02:54:19;;;;;;;7.10;3.50;;;;;;;10.97;79.68;96433.96;127543;1101;22760;-80
2021/05/25 02:56:49;;;;;;;3.20;1.97;;;;;;;10.98;79.35;96499.22;127560;1101;24358;-80
2021/05/25 02:59:19;;;;;;;3.93;1.60;;;;;;;11.23;77.46;96525.44;127534;1096;23326;-80
2021/05/25 03:01:49;;;;;;;2.63;1.37;;;;;;;11.47;76.34;96495.42;127578;1096;23738;-80
2021/05/25 03:04:19;;;;;;;1.90;1.17;;;;;;;11.52;75.61;96443.03;127802;1101;22752;-79
2021/05/25 03:06:50;;;;;;;3.73;1.37;;;;;;;11.66;76.20;96434.34;127646;1101;23404;-79
2021/05/25 03:09:19;;;;;;;4.45;1.70;;;;;;;11.63;76.61;96440.23;127561;1095;26768;-79
2021/05/25 03:11:49;;;;;;;4.60;1.80;;;;;;;11.57;76.57;96445.63;127565;1101;22763;-79
2021/05/25 03:14:19;;;;;;;6.60;3.03;;;;;;;11.49;77.29;96424.24;127550;1095;23704;-79
2021/05/25 03:16:49;;;;;;;7.13;2.07;;;;;;;11.45;76.80;96424.04;127564;1101;23117;-79
2021/05/25 03:19:18;;;;;;;3.40;1.97;;;;;;;11.45;76.87;96450.58;127553;1096;26201;-78
2021/05/25 03:21:48;;;;;;;3.17;1.80;;;;;;;11.41;77.34;96446.94;127574;1101;22766;-80
2021/05/25 03:24:18;;;;;;;5.00;2.30;;;;;;;11.32;77.68;96402.73;127528;1101;23315;-79
2021/05/25 03:26:48;;;;;;;3.13;1.90;;;;;;;11.23;78.26;96399.93;127656;1101;24406;-79
2021/05/25 03:29:18;;;;;;;2.83;1.57;;;;;;;11.12;79.20;96431.14;127573;1101;22787;-80
2021/05/25 03:31:49;;;;;;;6.05;2.30;;;;;;;11.03;79.50;96451.41;127544;1101;22788;-80
2021/05/25 03:34:18;;;;;;;5.45;2.20;;;;;;;10.95;79.78;96462.63;127542;1101;22856;-79
2021/05/25 03:36:48;;;;;;;3.47;1.50;;;;;;;10.96;79.79;96464.21;127533;1101;23020;-79
2021/05/25 03:39:18;;;;;;;3.95;1.75;;;;;;;10.95;79.63;96463.42;127534;1101;23063;-79
2021/05/25 03:41:48;;;;;;;3.55;1.60;;;;;;;10.96;80.09;96477.47;127557;1101;23496;-79
2021/05/25 03:44:18;;;;;;;4.53;1.93;;;;;;;11.08;79.78;96480.52;127539;1101;25521;-79
2021/05/25 03:46:47;;;;;;;6.97;2.47;;;;;;;11.11;79.72;96477.29;127520;1101;26096;-80
2021/05/25 03:49:17;;;;;;;4.48;2.28;;;;;;;11.14;79.31;96471.44;127557;1101;23417;-79
2021/05/25 03:51:48;;;;;;;1.80;1.27;;;;;;;11.17;79.41;96475.38;127522;1101;22783;-79
2021/05/25 03:54:21;;;;;;;5.03;2.00;;;;;;;11.21;79.66;96468.42;127561;1101;24360;-79
2021/05/25 03:56:53;;;;;;;4.98;2.63;;;;;;;11.19;80.06;96462.61;127548;1101;25559;-79
2021/05/25 03:59:23;;;;;;;5.00;3.33;;;;;;;11.10;79.80;96449.18;127547;1096;22757;-80
2021/05/25 04:01:54;;;;;;;6.30;2.67;;;;;;;11.05;80.03;96456.42;127545;1101;22763;-79
2021/05/25 04:04:23;;;;;;;5.15;2.83;;;;;;;11.03;80.20;96427.53;127538;1101;23734;-79
2021/05/25 04:06:53;;;;;;;6.50;2.67;;;;;;;11.06;80.01;96397.77;127576;1101;22784;-79
2021/05/25 04:09:24;;;;;;;2.43;1.73;;;;;;;11.11;81.21;96397.70;127556;1101;23714;-80
2021/05/25 04:11:58;;;;;;;5.58;2.58;;;;;;;11.09;81.41;96413.12;127599;1101;23713;-79
2021/05/25 04:14:28;;;;;;;3.60;1.75;;;;;;;11.12;81.04;96411.75;127587;1101;24923;-79
2021/05/25 04:16:58;;;;;;;4.13;1.95;;;;;;;11.19;80.79;96414.85;127592;1101;22760;-81
2021/05/25 04:19:28;;;;;;;3.58;1.50;;;;;;;11.28;80.36;96398.01;127665;1101;23169;-78
2021/05/25 04:21:58;;;;;;;3.25;1.88;;;;;;;11.37;80.16;96397.34;127528;1101;22784;-81
2021/05/25 04:24:28;;;;;;;4.53;1.88;;;;;;;11.43;80.23;96394.34;127664;1101;27992;-79
2021/05/25 04:26:58;;;;;;;4.18;1.58;;;;;;;11.47;80.63;96415.78;127687;1101;22790;-78
2021/05/25 04:29:28;;;;;;;3.60;1.90;;;;;;;11.43;80.11;96404.17;127691;1101;22790;-78
2021/05/25 04:31:58;;;;;;;4.50;1.57;;;;;;;11.45;79.87;96402.02;127624;1101;23360;-78
2021/05/25 04:34:27;;;;;;;2.67;1.70;;;;;;;11.42;79.70;96402.59;127592;1101;22763;-78
2021/05/25 04:36:57;;;;;;;2.93;1.90;;;;;;;11.38;79.81;96393.61;127561;1096;26410;-79
2021/05/25 04:39:27;;;;;;;4.08;1.90;;;;;;;11.33;80.18;96353.89;127561;1101;25442;-79
2021/05/25 04:41:57;;;;;;;2.35;1.75;;;;;;;11.26;80.85;96363.02;127576;1094;26264;-79
2021/05/25 04:44:27;;;;;;;2.38;1.70;;;;;;;11.17;81.65;96388.61;127565;1101;22791;-81
2021/05/25 04:46:57;;;;;;;4.50;1.80;;;;;;;11.15;82.23;96379.36;127558;1096;26200;-79
2021/05/25 04:49:27;;;;;;;4.25;1.75;;;;;;;11.19;81.66;96375.84;127579;1101;23831;-79
2021/05/25 04:51:56;;;;;;;2.50;1.50;;;;;;;11.29;81.67;96365.09;127668;1101;23764;-79
2021/05/25 04:54:27;;;;;;;2.30;1.55;;;;;;;11.35;81.71;96365.00;127539;1101;23719;-79
2021/05/25 04:56:57;;;;;;;2.23;1.70;;;;;;;11.33;81.83;96365.30;127549;1101;23577;-79
2021/05/25 04:59:27;;;;;;;3.23;1.70;;;;;;;11.35;81.49;96347.21;127564;1101;22812;-79
2021/05/25 05:01:57;;;;;;;3.35;1.50;;;;;;;11.41;81.59;96351.38;127616;1101;22932;-79
2021/05/25 05:04:27;;;;;;;4.18;1.78;;;;;;;11.49;81.62;96339.30;127623;1096;26277;-79
2021/05/25 05:06:57;;;;;;;4.03;1.73;;;;;;;11.57;81.32;96331.47;127638;1101;22769;-79
2021/05/25 05:09:27;;;;;;;6.10;1.97;;;;;;;11.66;81.16;96336.09;127567;1101;23831;-80
2021/05/25 05:11:57;;;;;;;1.70;1.40;;;;;;;11.73;81.59;96345.27;127726;1101;23703;-79
2021/05/25 05:14:27;;;;;;;2.60;1.60;;;;;;;11.80;81.56;96358.98;127568;1101;24431;-80
2021/05/25 05:16:57;;;;;;;2.33;1.78;;;;;;;11.83;81.48;96361.08;127568;1101;23628;-80
2021/05/25 05:19:27;;;;;;;4.10;2.03;;;;;;;11.81;81.41;96357.90;127530;1101;43038;-79
2021/05/25 05:21:57;;;;;;;4.13;2.03;;;;;;;11.84;81.84;96365.31;127550;1095;26344;-79
2021/05/25 05:24:27;;;;;;;2.68;2.03;;;;;;;11.93;82.08;96360.09;127530;1101;22793;-80
2021/05/25 05:26:57;;;;;;;3.17;1.97;;;;;;;12.07;82.18;96368.88;127505;1101;22779;-79
2021/05/25 05:29:27;;;;;;;3.35;1.63;;;;;;;12.18;82.18;96377.46;127578;1096;26574;-80
2021/05/25 05:31:57;;;;;;;2.20;1.45;;;;;;;12.25;82.05;96372.56;127576;1101;22820;-79
2021/05/25 05:34:27;;;;;;;2.43;1.78;;;;;;;12.31;81.92;96373.24;127547;1101;22800;-80
2021/05/25 05:36:57;;;;;;;2.90;1.65;;;;;;;12.39;81.85;96372.57;127544;1096;23617;-79
2021/05/25 05:39:28;;;;;;;2.93;1.78;;;;;;;12.40;81.39;96379.46;127562;1096;26276;-80
2021/05/25 05:41:57;;;;;;;2.93;1.90;;;;;;;12.33;80.51;96395.78;127598;1101;22784;-80
2021/05/25 05:44:27;;;;;;;5.38;2.23;;;;;;;12.28;80.87;96403.86;127518;1101;24629;-80
2021/05/25 05:46:57;;;;;;;6.45;2.18;;;;;;;12.31;80.93;96397.16;127567;1101;22760;-81
2021/05/25 05:49:27;;;;;;;4.15;2.00;;;;;;;12.39;81.28;96404.47;127726;1101;22766;-78
2021/05/25 05:51:57;;;;;;;5.00;2.28;;;;;;;12.46;81.35;96405.64;127603;1101;22760;-78
2021/05/25 05:54:28;;;;;;;6.03;2.50;;;;;;;12.60;81.22;96415.50;127540;1101;24345;-79
2021/05/25 05:56:58;;;;;;;11.08;7.45;;;;;;;12.63;81.27;96414.91;127554;1096;27129;-81
2021/05/25 05:59:28;;;;;;;4.30;2.23;;;;;;;12.67;81.25;96416.70;127554;1101;22761;-79
2021/05/25 06:01:58;;;;;;;2.95;2.18;;;;;;;12.60;80.62;96418.16;127532;1101;23190;-80
2021/05/25 06:04:27;;;;;;;4.25;1.98;;;;;;;12.53;81.18;96425.72;127533;1101;27490;-79
2021/05/25 06:06:57;;;;;;;6.80;2.03;;;;;;;12.47;81.10;96422.38;127721;1101;22759;-80
2021/05/25 06:09:27;;;;;;;5.70;2.63;;;;;;;12.43;81.49;96422.19;127660;1101;22780;-80
2021/05/25 06:11:57;;;;;;;3.10;2.03;;;;;;;12.34;81.89;96423.94;127563;1101;22766;-80
2021/05/25 06:14:27;;;;;;;3.73;2.40;;;;;;;12.30;81.89;96427.48;127604;1101;24488;-80
2021/05/25 06:16:59;;;;;;;4.90;2.15;;;;;;;12.30;82.08;96420.30;127540;1096;23749;-80
2021/05/25 06:19:29;;;;;;;2.98;1.80;;;;;;;12.33;81.58;96417.05;127733;1101;22760;-80
2021/05/25 06:21:59;;;;;;;3.60;2.03;;;;;;;12.39;80.71;96423.87;127485;1101;22784;-80
2021/05/25 06:24:28;;;;;;;10.13;4.73;;;;;;;12.45;80.17;96424.55;127411;1101;26876;-81
2021/05/25 06:26:58;;;;;;;3.10;1.80;;;;;;;12.53;80.86;96420.41;127439;1101;25251;-80
2021/05/25 06:29:28;;;;;;;3.73;2.28;;;;;;;12.50;80.80;96424.45;127417;1101;25169;-80
2021/05/25 06:32:01;;;;;;;2.13;1.65;;;;;;;12.53;81.12;96425.72;127489;1101;23361;-80
2021/05/25 06:34:33;;;;;;;5.95;1.95;;;;;;;12.60;81.14;96421.60;127556;1096;26951;-80
2021/05/25 06:37:04;;;;;;;3.73;1.90;;;;;;;12.58;80.96;96409.69;127536;1096;29780;-79
2021/05/25 06:39:34;;;;;;;2.80;1.50;;;;;;;12.60;80.76;96396.88;127517;1101;25566;-81
2021/05/25 06:42:04;;;;;;;3.00;1.60;;;;;;;12.66;80.79;96393.03;127590;1101;25252;-81
2021/05/25 06:44:35;;;;;;;4.75;1.70;;;;;;;12.82;80.50;96389.00;127601;1101;24402;-80
2021/05/25 06:47:05;;;;;;;4.45;2.20;;;;;;;12.94;80.33;96399.90;127587;1101;27145;-80
2021/05/25 06:49:35;;;;;;;3.75;2.03;;;;;;;13.05;79.97;96395.95;127529;1100;36651;-81
2021/05/25 06:52:05;;;;;;;2.88;2.00;;;;;;;13.08;79.80;96405.98;127533;1101;26437;-79
2021/05/25 06:54:35;;;;;;;3.13;2.10;;;;;;;13.08;79.74;96403.33;127426;1101;22769;-80
2021/05/25 06:57:06;;;;;;;6.63;2.25;;;;;;;13.14;79.61;96408.56;127388;1101;23805;-79
2021/05/25 06:59:37;;;;;;;3.73;2.30;;;;;;;13.34;79.38;96403.59;127730;1101;24278;-79
2021/05/25 07:02:06;;;;;;;;;;;;;;;13.54;78.27;96397.04;127494;1101;22752;-80
2021/05/25 07:04:36;;;;;;;4.80;2.10;;;;;;;13.62;78.19;96398.17;127461;1101;21462;-80
2021/05/25 07:07:06;;;;;;;2.97;1.80;;;;;;;14.22;78.60;96395.12;127438;1101;24396;-80
2021/05/25 07:09:36;;;;;;;4.05;1.78;;;;;;;15.63;74.79;96381.50;127484;1096;26773;-81
2021/05/25 07:12:07;;;;;;;3.13;1.78;;;;;;;16.60;74.26;96381.69;127503;1101;33612;-81
2021/05/25 07:14:37;;;;;;;3.75;1.53;;;;;;;16.73;72.34;96387.17;127542;1101;22876;-81
2021/05/25 07:17:07;;;;;;;5.00;1.95;;;;;;;16.54;70.59;96391.02;127535;1101;25615;-81
2021/05/25 07:19:37;;;;;;;2.85;1.90;;;;;;;16.35;70.98;96377.25;127543;1101;23390;-79
2021/05/25 07:22:07;;;;;;;5.80;1.60;;;;;;;16.17;70.13;96381.86;127557;1101;22929;-80
2021/05/25 07:24:37;;;;;;;2.48;1.70;;;;;;;15.92;70.56;96386.18;127553;1101;22756;-79
2021/05/25 07:27:08;;;;;;;3.25;1.80;;;;;;;15.64;70.91;96382.29;127511;1101;23373;-80
2021/05/25 07:29:37;;;;;;;4.75;2.23;;;;;;;15.48;71.43;96389.16;127524;1101;25449;-80
2021/05/25 07:32:08;;;;;;;4.77;2.60;;;;;;;15.25;72.19;96397.33;127559;1101;22770;-81
2021/05/25 07:34:38;;;;;;;3.05;2.08;;;;;;;15.05;72.19;96392.58;127571;1101;22875;-80
2021/05/25 07:37:07;;;;;;;3.50;2.25;;;;;;;14.91;72.81;96389.25;127533;1101;24145;-81
2021/05/25 07:39:38;;;;;;;2.60;1.85;;;;;;;14.77;72.98;96390.16;127527;1101;35350;-79
2021/05/25 07:42:08;;;;;;;10.15;1.95;;;;;;;14.60;73.48;96394.66;127524;1101;25503;-79
2021/05/25 07:44:37;;;;;;;;;;;;;;;14.50;73.91;96393.08;127548;1101;24369;-80
2021/05/25 07:47:07;;;;;;;2.95;1.55;;;;;;;14.43;74.10;96395.36;127529;1101;22880;-80
2021/05/25 07:49:37;;;;;;;3.43;2.43;;;;;;;14.37;75.15;96392.05;127551;1101;22996;-80
2021/05/25 07:52:07;;;;;;;2.60;1.80;;;;;;;14.43;75.88;96390.02;127543;1101;25627;-80
2021/05/25 07:54:37;;;;;;;3.27;2.13;;;;;;;14.57;75.67;96384.61;127517;1101;35141;-80
2021/05/25 07:57:08;;;;;;;3.83;2.23;;;;;;;15.40;76.17;96383.52;127518;1101;23631;-80
2021/05/25 07:59:37;;;;;;;5.78;2.45;;;;;;;16.69;74.04;96383.58;127542;1101;23737;-80
2021/05/25 08:02:08;;;;;;;4.48;2.28;;;;;;;17.51;71.92;96371.39;127537;1101;24402;-80
2021/05/25 08:04:38;;;;;;;9.13;2.60;;;;;;;17.69;69.01;96372.83;127499;1101;25317;-80
2021/05/25 08:07:08;;;;;;;2.73;1.78;;;;;;;17.62;66.98;96375.24;127528;1101;23980;-79
2021/05/25 08:09:38;;;;;;;3.75;1.95;;;;;;;17.39;65.86;96372.11;127551;1101;25564;-80
2021/05/25 08:12:09;;;;;;;3.75;1.90;;;;;;;18.00;68.62;96382.31;127555;1101;22932;-79
2021/05/25 08:14:39;;;;;;;3.05;1.73;;;;;;;18.80;65.77;96371.94;127533;1101;22783;-79
2021/05/25 08:17:18;;;;;;;2.38;1.45;;;;;;;18.49;60.64;96380.52;127575;1101;37666;-80
2021/05/25 08:19:50;;;;;;;3.15;1.83;;;;;;;18.03;61.78;96378.99;127551;1101;24347;-79
2021/05/25 08:22:21;;;;;;;2.38;1.70;;;;;;;17.69;60.98;96380.88;127437;1097;80317;-80
2021/05/25 08:24:52;;;;;;;2.68;1.93;;;;;;;17.48;63.29;96391.59;127442;1101;96027;-80
2021/05/25 08:27:22;;;;;;;4.10;1.83;;;;;;;17.46;62.86;96398.40;127797;1101;24411;-79
2021/05/25 08:29:52;;;;;;;4.15;1.90;;;;;;;17.18;60.71;96404.27;127560;1096;26370;-79
2021/05/25 08:32:22;;;;;;;2.88;1.40;;;;;;;16.92;62.39;96400.95;127559;1101;25330;-79
2021/05/25 08:34:52;;;;;;;2.78;1.88;;;;;;;16.79;62.13;96415.35;127512;1096;26789;-80
2021/05/25 08:37:22;;;;;;;3.13;1.73;;;;;;;16.51;61.43;96407.72;127621;1101;22762;-80
2021/05/25 08:39:53;;;;;;;4.38;1.65;;;;;;;16.27;62.15;96415.51;127562;1101;39391;-80
2021/05/25 08:42:22;;;;;;;;;;;;;;;16.10;63.03;96423.58;127554;1101;22996;-78
2021/05/25 08:44:52;;;;;;;3.25;1.85;;;;;;;16.00;64.15;96420.13;127561;1101;23316;-81
2021/05/25 08:47:22;;;;;;;3.73;2.38;;;;;;;15.88;64.45;96428.00;127820;1096;26222;-79
2021/05/25 08:49:53;;;;;;;4.40;2.25;;;;;;;15.78;64.52;96430.23;127732;1101;23066;-79
2021/05/25 08:52:23;;;;;;;3.00;2.08;;;;;;;15.64;65.03;96427.72;127584;1095;27001;-79
2021/05/25 08:54:53;;;;;;;3.50;2.03;;;;;;;15.60;65.97;96424.08;127550;1096;27753;-80
2021/05/25 08:57:23;;;;;;;2.63;2.15;;;;;;;15.52;65.64;96435.54;127549;1095;26995;-80
2021/05/25 08:59:54;;;;;;;3.88;2.20;;;;;;;15.43;66.61;96438.98;127565;1101;26154;-79
2021/05/25 09:02:24;;;;;;;2.73;2.00;;;;;;;15.33;65.85;96436.60;127550;1101;43171;-78
2021/05/25 09:05:07;;;;;;;5.45;2.93;;;;;;;15.21;66.83;96431.11;127565;1101;23241;-79
2021/05/25 09:07:43;;;;;;;4.60;2.23;;;;;;;15.13;66.46;96443.33;127723;1101;23650;-78
2021/05/25 09:10:20;;;;;;;3.90;2.30;;;;;;;15.08;67.38;96454.17;127586;1101;22829;-79
2021/05/25 09:12:51;;;;;;;4.03;2.08;;;;;;;15.06;67.31;96443.02;127772;1101;74762;-80
2021/05/25 09:15:34;;;;;;;5.55;2.03;;;;;;;15.05;67.28;96451.31;127547;1095;26002;-79
2021/05/25 09:18:06;;;;;;;2.43;1.85;;;;;;;15.01;67.71;96445.03;128155;1101;22790;-79
2021/05/25 09:20:45;;;;;;;2.28;1.68;;;;;;;15.00;67.66;96444.24;127676;1101;43088;-79
2021/05/25 09:23:18;;;;;;;4.65;1.80;;;;;;;15.01;68.36;96447.70;127612;1101;22757;-79
2021/05/25 09:25:59;;;;;;;2.78;1.88;;;;;;;14.99;68.47;96453.34;127586;1101;22779;-79
2021/05/25 09:28:29;;;;;;;4.27;1.90;;;;;;;14.97;68.41;96452.09;128041;1101;24667;-79
2021/05/25 09:30:59;;;;;;;2.60;1.90;;;;;;;14.94;68.33;96464.17;127573;1101;24581;-79
2021/05/25 09:33:29;;;;;;;2.00;1.83;;;;;;;14.91;68.11;96464.77;127614;1101;25933;-79
2021/05/25 09:36:11;;;;;;;4.63;2.00;;;;;;;14.90;68.68;96467.75;127573;1101;22773;-78
2021/05/25 09:38:41;;;;;;;3.37;1.80;;;;;;;14.91;68.96;96472.78;127564;1101;24274;-79
2021/05/25 09:41:11;;;;;;;3.05;2.10;;;;;;;14.90;70.02;96476.55;127601;1096;22823;-79
2021/05/25 09:43:41;;;;;;;6.43;2.28;;;;;;;14.84;69.84;96486.59;127917;1101;24477;-79
2021/05/25 09:46:13;;;;;;;2.67;1.87;;;;;;;14.77;70.23;96490.78;127580;1101;23257;-79
2021/05/25 09:48:56;;;;;;;3.38;2.10;;;;;;;14.63;70.43;96487.42;128296;1101;26323;-79
2021/05/25 09:51:29;;;;;;;2.68;1.80;;;;;;;14.53;70.91;96494.61;127633;1101;22745;-79
2021/05/25 09:54:02;;;;;;;3.70;2.05;;;;;;;14.47;71.68;96485.14;127532;1101;29254;-79
2021/05/25 09:56:35;;;;;;;3.18;1.80;;;;;;;14.34;72.76;96496.64;127755;1101;24571;-79
2021/05/25 09:59:05;;;;;;;3.00;1.83;;;;;;;14.20;74.23;96494.05;127586;1100;22764;-79
2021/05/25 10:01:37;;;;;;;3.10;1.38;;;;;;;14.03;75.11;96509.93;127579;1101;22789;-79
2021/05/25 10:04:15;;;;;;;2.48;1.53;;;;;;;13.94;75.46;96514.42;127578;1100;22817;-79
2021/05/25 10:06:47;;;;;;;2.77;1.30;;;;;;;13.88;75.25;96518.27;127537;1101;22836;-80
2021/05/25 10:09:20;;;;;;;3.25;1.30;;;;;;;13.87;75.14;96516.70;128332;1101;24226;-80
2021/05/25 10:11:51;;;;;;;2.88;1.30;;;;;;;13.86;75.16;96512.46;127526;1096;23403;-80
2021/05/25 10:14:19;;;;;;;;;;;;;;;13.85;75.07;96506.34;127556;1101;28110;-79
2021/05/25 10:16:53;;;;;;;4.13;1.93;;;;;;;13.82;75.18;96503.50;127559;1101;23110;-79
2021/05/25 10:19:27;;;;;;;2.03;1.58;;;;;;;13.81;75.56;96501.93;128058;1100;24400;-80
2021/05/25 10:21:57;;;;;;;3.83;1.18;;;;;;;13.86;75.46;96499.92;127518;1100;33472;-80
2021/05/25 10:24:27;;;;;;;1.90;1.25;;;;;;;13.89;75.74;96493.98;127628;1101;28345;-80
2021/05/25 10:26:57;;;;;;;3.68;1.60;;;;;;;13.90;75.46;96497.44;127526;1101;27427;-80
2021/05/25 10:29:27;;;;;;;2.43;1.60;;;;;;;13.93;75.32;96502.16;127539;1100;22780;-80
2021/05/25 10:32:00;;;;;;;2.90;1.40;;;;;;;13.98;75.23;96506.60;127526;1101;23217;-80
2021/05/25 10:34:35;;;;;;;2.50;1.60;;;;;;;14.04;75.03;96502.72;127749;1101;23054;-80
2021/05/25 10:37:15;;;;;;;2.60;1.30;;;;;;;14.12;74.89;96502.80;127550;1101;24124;-79
2021/05/25 10:39:46;;;;;;;1.60;1.10;;;;;;;14.18;74.95;96490.12;127556;1100;23350;-80
2021/05/25 10:42:32;;;;;;;2.73;1.10;;;;;;;14.25;74.87;96491.28;127585;1100;23508;-80
2021/05/25 10:45:18;;;;;;;1.85;1.25;;;;;;;14.33;74.51;96497.74;127606;1101;26448;-80
2021/05/25 10:48:04;;;;;;;2.38;1.25;;;;;;;14.44;74.47;96501.77;127584;1100;22785;-79
2021/05/25 10:50:37;;;;;;;2.53;1.50;;;;;;;14.42;74.02;96495.14;127805;1100;26169;-81
2021/05/25 10:53:27;;;;;;;1.75;1.23;;;;;;;14.39;73.87;96501.88;127573;1100;25222;-81
2021/05/25 10:55:57;;;;;;;3.85;1.40;;;;;;;14.43;74.18;96505.50;127649;1101;22759;-80
2021/05/25 10:58:30;;;;;;;1.90;1.25;;;;;;;14.43;74.18;96507.38;127519;1100;29306;-79
2021/05/25 11:01:03;;;;;;;1.40;1.30;;;;;;;14.37;74.11;96509.39;127718;1101;24495;-79
2021/05/25 11:03:33;;;;;;;1.83;1.20;;;;;;;14.38;74.89;96504.84;127596;1101;26323;-79
2021/05/25 11:06:06;;;;;;;2.03;1.50;;;;;;;14.37;74.44;96503.28;127619;1101;22822;-79
2021/05/25 11:08:40;;;;;;;2.93;1.70;;;;;;;14.35;73.95;96500.89;127668;1096;26518;-79
2021/05/25 11:11:30;;;;;;;10.63;6.10;;;;;;;14.34;74.45;96507.31;127553;1095;26773;-79
2021/05/25 11:14:13;;;;;;;2.53;1.93;;;;;;;14.32;73.97;96506.83;127657;1101;25008;-78
2021/05/25 11:16:43;;;;;;;4.25;2.28;;;;;;;14.29;74.50;96512.00;127569;1100;24352;-78
2021/05/25 11:19:33;;;;;;;10.25;7.45;;;;;;;14.31;74.51;96504.47;127584;1100;22760;-79
2021/05/25 11:25:02;;;;;;;2.40;1.70;;;;;;;14.38;74.43;96518.97;127594;1101;22799;-79
2021/05/25 11:27:41;;;;;;;2.25;1.70;;;;;;;14.38;74.70;96520.85;127805;1100;28354;-79
2021/05/25 11:30:24;;;;;;;1.98;1.48;;;;;;;14.38;74.60;96516.30;127600;1101;22843;-80
2021/05/25 11:32:56;;;;;;;3.05;1.68;;;;;;;14.36;75.12;96512.38;127577;1101;23162;-79
2021/05/25 11:35:28;;;;;;;4.38;1.78;;;;;;;14.31;74.72;96513.27;127552;1101;26067;-81
2021/05/25 11:38:00;;;;;;;1.98;1.60;;;;;;;14.28;74.85;96527.20;127535;1101;22777;-79
2021/05/25 11:40:33;;;;;;;1.58;1.45;;;;;;;14.24;75.10;96515.58;127565;1097;26372;-79
2021/05/25 11:43:03;;;;;;;2.60;1.90;;;;;;;14.23;75.47;96524.67;127630;1100;22791;-80
2021/05/25 11:45:33;;;;;;;3.38;1.68;;;;;;;14.18;75.88;96512.23;127648;1101;22837;-80
2021/05/25 11:48:06;;;;;;;3.68;1.53;;;;;;;14.14;75.98;96523.81;127577;1101;36397;-79